Reeders, Pennsylvania
Current Conditions -  °F | °C
As of 10:53 PM on Saturday 22 Nov 2014 (Local Time) from KMPO Reporting Station
Clear Clear  
Wind Chill: -1°   Ceiling: Unl
Heat Index:   Visibility: 10mi
Dew Point: -9°   Wind: 13mph
Humidity: 39%   Direction: 260°W
Pressure: 30.13"   Gusts: NA
Location:  41.02°N, 75.34°W
Report Text: KMPO 230353Z AUTO 26011KT 10SM CLR 03/M09 A3013 RMK AO2 SLP219 T00331094
Loading
Personal Weather Stations






























Interactive Weather Map New forecast layout! Learn more

10-Day Weather Forecast

Advertisements
Track Severe Weather on mobile